createdAt,value
2023-03-14T00:01:21.841Z,1.92
2023-03-14T00:03:50.525Z,2.20
2023-03-14T00:06:20.226Z,1.95
2023-03-14T00:08:49.173Z,1.67
2023-03-14T00:11:20.021Z,1.90
2023-03-14T00:13:51.366Z,1.27
2023-03-14T00:16:20.918Z,1.58
2023-03-14T00:18:49.707Z,1.75
2023-03-14T00:21:18.128Z,1.98
2023-03-14T00:23:46.750Z,1.52
2023-03-14T00:26:16.645Z,1.65
2023-03-14T00:28:46.015Z,1.70
2023-03-14T00:31:17.528Z,1.58
2023-03-14T00:33:47.068Z,1.75
2023-03-14T00:36:17.668Z,1.80
2023-03-14T00:38:47.431Z,1.85
2023-03-14T00:41:17.548Z,1.55
2023-03-14T00:43:46.448Z,1.98
2023-03-14T00:46:16.397Z,2.22
2023-03-14T00:48:46.512Z,1.60
2023-03-14T00:51:16.195Z,2.00
2023-03-14T00:53:45.130Z,1.73
2023-03-14T00:56:15.268Z,1.42
2023-03-14T00:58:44.837Z,1.67
2023-03-14T01:01:18.332Z,1.80
2023-03-14T01:03:47.800Z,2.55
2023-03-14T01:06:17.915Z,1.42
2023-03-14T01:08:47.146Z,1.60
2023-03-14T01:11:17.768Z,2.33
2023-03-14T01:13:47.190Z,2.10
2023-03-14T01:16:18.190Z,2.45
2023-03-14T01:18:48.643Z,1.67
2023-03-14T01:21:18.741Z,2.05
2023-03-14T01:23:47.917Z,1.70
2023-03-14T01:26:19.887Z,1.92
2023-03-14T01:28:50.395Z,1.30
2023-03-14T01:31:20.318Z,1.85
2023-03-14T01:33:49.377Z,2.35
2023-03-14T01:36:18.256Z,2.17
2023-03-14T01:38:47.107Z,1.98
2023-03-14T01:41:19.296Z,1.42
2023-03-14T01:43:48.208Z,1.50
2023-03-14T01:46:39.580Z,1.42
2023-03-14T01:49:17.065Z,1.02
2023-03-14T01:51:51.829Z,1.92
2023-03-14T01:54:26.718Z,1.63
2023-03-14T01:56:59.382Z,1.17
2023-03-14T01:59:30.137Z,2.17
2023-03-14T02:02:00.841Z,1.95
2023-03-14T02:04:32.224Z,2.38
2023-03-14T02:07:04.910Z,1.80
2023-03-14T02:09:33.544Z,1.73
2023-03-14T02:12:02.279Z,1.63
2023-03-14T02:14:34.293Z,1.58
2023-03-14T02:17:07.557Z,1.27
2023-03-14T02:19:55.256Z,1.58
2023-03-14T02:22:24.023Z,2.40
2023-03-14T02:25:04.244Z,1.60
2023-03-14T02:27:34.741Z,1.27
2023-03-14T02:30:05.509Z,1.27
2023-03-14T02:32:36.436Z,2.75
2023-03-14T02:35:10.353Z,1.83
2023-03-14T02:37:43.364Z,2.33
2023-03-14T02:40:12.794Z,1.52
2023-03-14T02:42:42.857Z,1.48
2023-03-14T02:45:50.915Z,1.67
2023-03-14T02:48:22.596Z,1.52
2023-03-14T02:50:54.374Z,1.92
2023-03-14T02:53:27.372Z,2.17
2023-03-14T02:55:55.789Z,1.30
2023-03-14T02:58:25.684Z,2.00
2023-03-14T03:00:54.210Z,2.17
2023-03-14T03:03:22.862Z,2.97
2023-03-14T03:05:52.415Z,1.70
2023-03-14T03:08:21.762Z,1.50
2023-03-14T03:10:50.788Z,2.70
2023-03-14T03:13:19.577Z,1.20
2023-03-14T03:15:49.370Z,1.95
2023-03-14T03:18:17.744Z,1.63
2023-03-14T03:20:47.406Z,1.95
2023-03-14T03:23:16.023Z,1.98
2023-03-14T03:25:49.497Z,2.75
2023-03-14T03:28:17.944Z,1.20
2023-03-14T03:30:46.608Z,1.70
2023-03-14T03:33:16.754Z,1.30
2023-03-14T03:35:47.860Z,2.17
2023-03-14T03:38:16.951Z,2.00
2023-03-14T03:40:45.431Z,1.98
2023-03-14T03:43:13.866Z,1.80
2023-03-14T03:45:42.485Z,1.73
2023-03-14T03:48:10.886Z,1.42
2023-03-14T03:50:46.406Z,1.83
2023-03-14T03:53:17.884Z,2.85
2023-03-14T03:55:52.041Z,1.90
2023-03-14T03:58:20.760Z,2.00
2023-03-14T04:00:49.130Z,1.52
2023-03-14T04:03:17.533Z,2.20
2023-03-14T04:05:47.378Z,1.38
2023-03-14T04:08:15.794Z,1.73
2023-03-14T04:10:44.209Z,1.45
2023-03-14T04:13:12.539Z,2.22
2023-03-14T04:15:40.962Z,1.60
2023-03-14T04:18:09.399Z,1.60
2023-03-14T04:20:37.870Z,1.63
2023-03-14T04:23:07.941Z,1.70
2023-03-14T04:25:36.461Z,2.17
2023-03-14T04:28:09.126Z,1.58
2023-03-14T04:30:37.577Z,2.42
2023-03-14T04:33:06.198Z,1.52
2023-03-14T04:35:35.129Z,1.40
2023-03-14T04:38:04.196Z,1.30
2023-03-14T04:40:34.070Z,1.73
2023-03-14T04:43:02.558Z,1.42
2023-03-14T04:45:30.976Z,1.42
2023-03-14T04:47:59.406Z,1.50
2023-03-14T04:50:28.016Z,0.90
2023-03-14T04:52:56.364Z,1.48
2023-03-14T04:55:24.778Z,0.95
2023-03-14T04:57:54.680Z,1.35
2023-03-14T05:00:23.071Z,0.82
2023-03-14T05:02:51.478Z,0.88
2023-03-14T05:05:20.064Z,1.23
2023-03-14T05:07:48.784Z,0.85
2023-03-14T05:10:17.649Z,0.93
2023-03-14T05:12:46.460Z,1.40
2023-03-14T05:15:16.114Z,1.42
2023-03-14T05:17:44.501Z,1.00
2023-03-14T05:20:14.077Z,0.85
2023-03-14T05:22:42.511Z,0.57
2023-03-14T05:25:11.481Z,0.60
2023-03-14T05:27:41.206Z,0.70
2023-03-14T05:30:11.008Z,0.63
2023-03-14T05:32:41.202Z,1.00
2023-03-14T05:35:13.295Z,0.80
2023-03-14T05:37:42.124Z,0.95
2023-03-14T05:40:11.999Z,0.90
2023-03-14T05:42:40.401Z,0.90
2023-03-14T05:45:09.633Z,0.85
2023-03-14T05:47:38.134Z,1.13
2023-03-14T05:50:09.131Z,1.00
2023-03-14T05:52:39.934Z,1.20
2023-03-14T05:55:09.228Z,1.25
2023-03-14T05:57:37.613Z,1.50
2023-03-14T06:00:09.228Z,1.38
2023-03-14T06:02:37.683Z,1.85
2023-03-14T06:05:09.514Z,2.35
2023-03-14T06:07:38.122Z,2.70
2023-03-14T06:10:07.813Z,1.95
2023-03-14T06:12:36.232Z,3.13
2023-03-14T06:15:04.902Z,2.47
2023-03-14T06:17:33.514Z,2.50
2023-03-14T06:20:01.971Z,2.92
2023-03-14T06:22:31.870Z,3.45
2023-03-14T06:25:00.478Z,3.00
2023-03-14T06:27:29.219Z,3.20
2023-03-14T06:29:57.587Z,3.97
2023-03-14T06:32:26.736Z,3.58
2023-03-14T06:34:55.149Z,5.18
2023-03-14T06:37:23.568Z,4.32
2023-03-14T06:39:53.593Z,5.70
2023-03-14T06:42:24.485Z,4.75
2023-03-14T06:44:53.248Z,5.35
2023-03-14T06:47:26.405Z,5.80
2023-03-14T06:49:55.422Z,4.57
2023-03-14T06:52:23.770Z,5.15
2023-03-14T06:54:55.315Z,5.10
2023-03-14T06:57:23.835Z,4.93
2023-03-14T06:59:52.469Z,4.97
2023-03-14T07:02:24.871Z,3.88
2023-03-14T07:04:58.286Z,4.07
2023-03-14T07:07:26.632Z,3.92
2023-03-14T07:09:56.401Z,3.45
2023-03-14T07:12:24.794Z,3.65
2023-03-14T07:14:53.155Z,3.47
2023-03-14T07:17:21.579Z,4.47
2023-03-14T07:19:49.874Z,4.00
2023-03-14T07:22:18.307Z,3.55
2023-03-14T07:24:46.616Z,2.85
2023-03-14T07:27:16.335Z,2.17
2023-03-14T07:29:45.127Z,2.05
2023-03-14T07:32:15.686Z,1.65
2023-03-14T07:34:44.560Z,1.58
2023-03-14T07:37:12.981Z,1.25
2023-03-14T07:39:41.319Z,1.48
2023-03-14T07:42:09.863Z,1.60
2023-03-14T07:44:40.186Z,2.70
2023-03-14T07:47:08.634Z,2.22
2023-03-14T07:49:37.088Z,2.25
2023-03-14T07:52:05.521Z,2.33
2023-03-14T07:54:34.008Z,2.22
2023-03-14T07:57:02.462Z,2.20
2023-03-14T07:59:31.253Z,2.60
2023-03-14T08:02:00.983Z,1.80
2023-03-14T08:04:29.650Z,2.17
2023-03-14T08:06:58.422Z,2.25
2023-03-14T08:09:27.078Z,2.75
2023-03-14T08:11:57.442Z,2.50
2023-03-14T08:14:25.992Z,2.92
2023-03-14T08:16:54.464Z,2.35
2023-03-14T08:19:24.426Z,2.70
2023-03-14T08:21:52.831Z,3.00
2023-03-14T08:24:21.193Z,2.88
2023-03-14T08:26:49.528Z,2.70
2023-03-14T08:29:17.947Z,3.38
2023-03-14T08:31:46.621Z,3.30
2023-03-14T08:34:15.400Z,3.67
2023-03-14T08:36:45.447Z,3.80
2023-03-14T08:39:13.959Z,4.60
2023-03-14T08:41:43.772Z,5.15
2023-03-14T08:44:13.450Z,4.65
2023-03-14T08:46:41.939Z,5.18
2023-03-14T08:49:10.259Z,4.88
2023-03-14T08:51:38.678Z,5.25
2023-03-14T08:54:08.430Z,5.80
2023-03-14T08:56:38.699Z,4.97
2023-03-14T08:59:09.025Z,7.00
2023-03-14T09:01:37.555Z,6.85
2023-03-14T09:04:06.317Z,7.40
2023-03-14T09:06:34.801Z,9.18
2023-03-14T09:09:03.791Z,9.18
2023-03-14T09:11:35.605Z,7.60
2023-03-14T09:14:04.152Z,8.35
2023-03-14T09:16:32.818Z,7.80
2023-03-14T09:19:01.278Z,8.00
2023-03-14T09:21:29.992Z,7.25
2023-03-14T09:23:58.587Z,6.43
2023-03-14T09:26:27.062Z,8.07
2023-03-14T09:28:58.633Z,8.27
2023-03-14T09:31:27.932Z,3.08
2023-03-14T09:33:56.279Z,0.93
2023-03-14T09:36:24.791Z,0.77
2023-03-14T09:38:53.303Z,0.50
2023-03-14T09:41:27.102Z,0.90
2023-03-14T09:44:03.983Z,1.02
2023-03-14T09:46:36.549Z,0.93
2023-03-14T09:49:11.114Z,1.02
2023-03-14T09:51:44.908Z,0.90
2023-03-14T09:54:28.699Z,1.10
2023-03-14T09:56:57.288Z,1.15
2023-03-14T09:59:29.536Z,1.25
2023-03-14T10:02:02.340Z,1.00
2023-03-14T10:04:33.636Z,1.38
2023-03-14T10:07:04.709Z,1.13
2023-03-14T10:09:33.365Z,1.42
2023-03-14T10:12:01.988Z,1.20
2023-03-14T10:14:34.493Z,1.00
2023-03-14T10:17:11.337Z,0.50
2023-03-14T10:19:52.655Z,0.65
2023-03-14T10:22:23.596Z,0.88
2023-03-14T10:24:54.990Z,1.00
2023-03-14T10:27:30.041Z,0.77
2023-03-14T10:30:01.963Z,0.90
2023-03-14T10:32:35.237Z,0.90
2023-03-14T10:35:24.998Z,0.80
2023-03-14T10:37:56.561Z,1.25
2023-03-14T10:40:30.559Z,1.08
2023-03-14T10:43:00.973Z,1.00
2023-03-14T10:45:40.278Z,0.70
2023-03-14T10:48:21.185Z,0.98
2023-03-14T10:50:51.850Z,1.17
2023-03-14T10:53:20.608Z,1.27
2023-03-14T10:55:49.612Z,2.15
2023-03-14T10:58:26.907Z,1.40
2023-03-14T11:01:19.990Z,0.95
2023-03-14T11:03:54.581Z,1.05
2023-03-14T11:06:29.266Z,1.00
2023-03-14T11:09:06.569Z,0.60
2023-03-14T11:11:35.150Z,1.10
2023-03-14T11:14:16.406Z,0.60
2023-03-14T11:16:54.971Z,1.40
2023-03-14T11:19:45.705Z,0.68
2023-03-14T11:22:23.521Z,0.70
2023-03-14T11:25:04.504Z,0.80
2023-03-14T11:27:42.654Z,0.60
2023-03-14T11:30:27.630Z,1.02
2023-03-14T11:33:05.630Z,0.63
2023-03-14T11:35:39.439Z,0.60
2023-03-14T11:38:21.946Z,1.30
2023-03-14T11:40:52.805Z,0.82
2023-03-14T11:43:29.388Z,1.30
2023-03-14T11:46:03.685Z,0.98
2023-03-14T11:48:40.784Z,1.15
2023-03-14T11:51:15.604Z,0.73
2023-03-14T11:53:58.049Z,1.20
2023-03-14T11:56:33.750Z,0.70
2023-03-14T11:59:06.861Z,0.70
2023-03-14T12:01:53.021Z,0.90
2023-03-14T12:04:44.644Z,0.90
2023-03-14T12:07:20.369Z,1.02
2023-03-14T12:09:51.616Z,1.20
2023-03-14T12:12:24.113Z,1.00
2023-03-14T12:14:59.305Z,1.40
2023-03-14T12:17:36.095Z,1.52
2023-03-14T12:20:19.225Z,1.17
2023-03-14T12:22:50.544Z,1.55
2023-03-14T12:25:22.292Z,1.52
2023-03-14T12:28:06.416Z,1.42
2023-03-14T12:30:37.288Z,1.00
2023-03-14T12:33:32.108Z,1.77
2023-03-14T12:36:12.874Z,1.02
2023-03-14T12:39:13.189Z,1.98
2023-03-14T12:41:46.373Z,1.77
2023-03-14T12:44:41.261Z,1.88
2023-03-14T12:48:00.385Z,1.75
2023-03-14T12:50:36.939Z,1.50
2023-03-14T12:53:23.157Z,1.55
2023-03-14T12:55:58.244Z,1.60
2023-03-14T12:58:33.484Z,2.30
2023-03-14T13:01:04.179Z,2.45
2023-03-14T13:03:44.868Z,2.65
2023-03-14T13:06:13.958Z,2.80
2023-03-14T13:08:45.416Z,2.55
2023-03-14T13:11:17.847Z,3.25
2023-03-14T13:13:49.633Z,2.60
2023-03-14T13:16:21.317Z,2.30
2023-03-14T13:18:52.557Z,3.53
2023-03-14T13:21:23.861Z,2.90
2023-03-14T13:24:01.720Z,2.83
2023-03-14T13:26:36.178Z,2.78
2023-03-14T13:29:11.559Z,2.58
2023-03-14T13:31:45.691Z,3.63
2023-03-14T13:34:14.576Z,3.35
2023-03-14T13:36:43.174Z,3.33
2023-03-14T13:39:17.749Z,4.35
2023-03-14T13:41:49.379Z,2.60
2023-03-14T13:44:20.516Z,3.00
2023-03-14T13:46:48.966Z,4.13
2023-03-14T13:49:23.840Z,4.45
2023-03-14T13:51:52.317Z,2.70
2023-03-14T13:54:23.923Z,2.90
2023-03-14T13:57:01.881Z,3.42
2023-03-14T13:59:32.066Z,2.75
2023-03-14T14:02:03.053Z,4.20
2023-03-14T14:04:37.446Z,3.65
2023-03-14T14:07:10.705Z,4.38
2023-03-14T14:09:43.998Z,2.65
2023-03-14T14:12:17.428Z,3.17
2023-03-14T14:14:51.664Z,2.75
2023-03-14T14:17:23.395Z,2.42
2023-03-14T14:19:53.307Z,2.78
2023-03-14T14:22:22.319Z,2.88
2023-03-14T14:24:52.806Z,2.90
2023-03-14T14:27:29.973Z,2.08
2023-03-14T14:30:01.894Z,2.00
2023-03-14T14:32:38.049Z,1.85
2023-03-14T14:35:08.782Z,2.30
2023-03-14T14:37:44.444Z,2.38
2023-03-14T14:40:21.240Z,2.10
2023-03-14T14:42:50.526Z,2.20
2023-03-14T14:45:21.670Z,1.55
2023-03-14T14:47:52.438Z,2.10
2023-03-14T14:50:31.288Z,1.83
2023-03-14T14:53:01.579Z,1.65
2023-03-14T14:55:35.404Z,2.67
2023-03-14T14:58:22.515Z,2.05
2023-03-14T15:00:57.993Z,1.95
2023-03-14T15:03:30.632Z,2.17
2023-03-14T15:06:00.263Z,2.75
2023-03-14T15:08:29.612Z,2.90
2023-03-14T15:11:00.251Z,2.10
2023-03-14T15:13:28.665Z,2.10
2023-03-14T15:15:57.980Z,1.60
2023-03-14T15:18:31.108Z,1.42
2023-03-14T15:20:59.819Z,2.70
2023-03-14T15:23:28.272Z,1.30
2023-03-14T15:25:56.804Z,1.35
2023-03-14T15:28:28.512Z,1.63
2023-03-14T15:30:58.880Z,2.80
2023-03-14T15:33:28.291Z,1.50
2023-03-14T15:35:57.992Z,2.00
2023-03-14T15:38:26.371Z,1.60
2023-03-14T15:40:54.945Z,1.77
2023-03-14T15:43:23.543Z,2.22
2023-03-14T15:45:53.398Z,2.03
2023-03-14T15:48:23.237Z,1.45
2023-03-14T15:50:51.587Z,1.55
2023-03-14T15:53:20.424Z,1.15
2023-03-14T15:55:48.921Z,1.05
2023-03-14T15:58:21.747Z,1.20
2023-03-14T16:00:51.110Z,1.45
2023-03-14T16:03:21.161Z,1.23
2023-03-14T16:05:49.612Z,1.95
2023-03-14T16:08:18.502Z,1.15
2023-03-14T16:10:48.362Z,0.80
2023-03-14T16:13:17.559Z,1.58
2023-03-14T16:15:54.741Z,0.95
2023-03-14T16:18:24.885Z,1.58
2023-03-14T16:20:55.267Z,1.35
2023-03-14T16:23:23.969Z,1.70
2023-03-14T16:25:53.256Z,1.38
2023-03-14T16:28:21.919Z,0.90
2023-03-14T16:30:50.265Z,2.22
2023-03-14T16:33:19.062Z,1.70
2023-03-14T16:36:01.141Z,1.55
2023-03-14T16:38:33.749Z,1.55
2023-03-14T16:41:05.266Z,1.20
2023-03-14T16:43:37.162Z,2.05
2023-03-14T16:46:07.129Z,1.17
2023-03-14T16:48:36.250Z,1.05
2023-03-14T16:51:06.214Z,1.25
2023-03-14T16:53:34.776Z,1.48
2023-03-14T16:56:03.432Z,1.80
2023-03-14T16:58:32.274Z,1.30
2023-03-14T17:01:09.926Z,1.30
2023-03-14T17:03:39.253Z,1.60
2023-03-14T17:06:11.616Z,1.80
2023-03-14T17:08:40.069Z,1.10
2023-03-14T17:11:09.112Z,1.25
2023-03-14T17:13:38.499Z,1.60
2023-03-14T17:16:07.450Z,3.08
2023-03-14T17:18:36.529Z,2.38
2023-03-14T17:21:10.316Z,2.35
2023-03-14T17:23:38.851Z,3.65
2023-03-14T17:26:07.387Z,7.43
2023-03-14T17:28:36.597Z,5.40
2023-03-14T17:31:07.228Z,4.25
2023-03-14T17:33:36.550Z,4.15
2023-03-14T17:36:06.019Z,2.63
2023-03-14T17:38:37.112Z,2.17
2023-03-14T17:41:08.298Z,1.67
2023-03-14T17:43:36.950Z,1.27
2023-03-14T17:46:11.265Z,2.33
2023-03-14T17:48:40.333Z,1.60
2023-03-14T17:51:09.417Z,1.50
2023-03-14T17:53:39.202Z,1.80
2023-03-14T17:56:08.544Z,1.80
2023-03-14T17:58:38.170Z,1.65
2023-03-14T18:01:14.868Z,1.92
2023-03-14T18:03:45.462Z,1.60
2023-03-14T18:06:15.413Z,1.70
2023-03-14T18:08:46.633Z,1.73
2023-03-14T18:11:15.258Z,2.50
2023-03-14T18:13:44.728Z,1.77
2023-03-14T18:16:15.472Z,2.05
2023-03-14T18:18:48.147Z,2.00
2023-03-14T18:21:17.854Z,2.53
2023-03-14T18:23:48.299Z,2.25
2023-03-14T18:26:16.803Z,4.50
2023-03-14T18:28:45.922Z,13.05
2023-03-14T18:31:17.044Z,2.70
2023-03-14T18:33:47.902Z,3.33
2023-03-14T18:36:16.708Z,1.50
2023-03-14T18:38:48.494Z,1.70
2023-03-14T18:41:19.923Z,1.80
2023-03-14T18:43:48.451Z,1.55
2023-03-14T18:46:17.402Z,2.97
2023-03-14T18:48:45.998Z,2.72
2023-03-14T18:51:16.798Z,2.05
2023-03-14T18:53:48.594Z,2.75
2023-03-14T18:56:18.920Z,2.67
2023-03-14T18:58:47.420Z,3.53
2023-03-14T19:01:17.594Z,2.90
2023-03-14T19:03:47.504Z,3.10
2023-03-14T19:06:17.279Z,2.63
2023-03-14T19:08:47.461Z,2.13
2023-03-14T19:11:16.136Z,2.63
2023-03-14T19:13:45.017Z,2.33
2023-03-14T19:16:15.261Z,3.67
2023-03-14T19:18:45.169Z,2.53
2023-03-14T19:21:15.437Z,3.80
2023-03-14T19:23:49.100Z,2.83
2023-03-14T19:26:19.122Z,2.58
2023-03-14T19:28:47.765Z,3.17
2023-03-14T19:31:17.007Z,3.30
2023-03-14T19:33:45.696Z,3.58
2023-03-14T19:36:22.412Z,3.20
2023-03-14T19:38:51.261Z,3.28
2023-03-14T19:41:23.649Z,2.22
2023-03-14T19:43:52.596Z,1.63
2023-03-14T19:46:23.016Z,3.70
2023-03-14T19:48:54.190Z,2.80
2023-03-14T19:51:24.046Z,2.97
2023-03-14T19:53:53.497Z,2.15
2023-03-14T19:56:26.115Z,3.67
2023-03-14T19:58:59.549Z,2.80
2023-03-14T20:01:31.909Z,2.97
2023-03-14T20:04:04.217Z,2.53
2023-03-14T20:06:34.844Z,2.53
2023-03-14T20:09:05.640Z,3.83
2023-03-14T20:11:41.859Z,1.80
2023-03-14T20:14:11.777Z,2.30
2023-03-14T20:16:41.915Z,2.30
2023-03-14T20:19:12.932Z,2.20
2023-03-14T20:21:41.916Z,2.30
2023-03-14T20:24:10.764Z,2.33
2023-03-14T20:26:40.618Z,14.27
2023-03-14T20:29:09.269Z,2.95
2023-03-14T20:31:40.149Z,2.50
2023-03-14T20:34:09.622Z,2.65
2023-03-14T20:36:39.271Z,1.88
2023-03-14T20:39:07.958Z,2.47
2023-03-14T20:41:42.281Z,2.03
2023-03-14T20:44:13.443Z,3.40
2023-03-14T20:46:44.003Z,3.45
2023-03-14T20:49:12.561Z,3.45
2023-03-14T20:51:41.271Z,2.47
2023-03-14T20:54:14.226Z,2.15
2023-03-14T20:56:46.461Z,1.88
2023-03-14T20:59:17.021Z,3.00
2023-03-14T21:01:47.660Z,1.90
2023-03-14T21:04:17.094Z,1.92
2023-03-14T21:06:46.492Z,1.63
2023-03-14T21:09:15.605Z,2.38
2023-03-14T21:11:47.396Z,2.65
2023-03-14T21:14:19.390Z,3.03
2023-03-14T21:16:47.816Z,2.42
2023-03-14T21:19:16.386Z,1.95
2023-03-14T21:21:45.133Z,1.55
2023-03-14T21:24:17.730Z,2.00
2023-03-14T21:26:46.618Z,1.98
2023-03-14T21:29:14.911Z,1.98
2023-03-14T21:31:44.775Z,1.52
2023-03-14T21:34:13.431Z,1.88
2023-03-14T21:36:42.157Z,2.15
2023-03-14T21:39:10.881Z,2.20
2023-03-14T21:41:39.436Z,2.50
2023-03-14T21:44:07.821Z,1.65
2023-03-14T21:46:37.201Z,1.98
2023-03-14T21:49:07.134Z,2.83
2023-03-14T21:51:35.787Z,2.65
2023-03-14T21:54:10.018Z,3.05
2023-03-14T21:56:39.124Z,1.90
2023-03-14T21:59:08.138Z,2.25
2023-03-14T22:01:39.489Z,2.30
2023-03-14T22:04:09.661Z,2.47
2023-03-14T22:06:39.523Z,2.08
2023-03-14T22:09:08.267Z,2.42
2023-03-14T22:11:36.804Z,2.20
2023-03-14T22:14:05.552Z,1.75
2023-03-14T22:16:34.030Z,2.17
2023-03-14T22:19:02.385Z,1.92
2023-03-14T22:21:32.279Z,3.47
2023-03-14T22:24:00.651Z,1.70
2023-03-14T22:26:28.958Z,2.53
2023-03-14T22:28:57.565Z,2.92
2023-03-14T22:31:26.887Z,2.63
2023-03-14T22:33:55.835Z,2.90
2023-03-14T22:36:24.238Z,2.20
2023-03-14T22:38:54.077Z,2.58
2023-03-14T22:41:25.495Z,2.63
2023-03-14T22:43:55.975Z,2.47
2023-03-14T22:46:24.501Z,3.55
2023-03-14T22:48:52.800Z,2.88
2023-03-14T22:51:21.715Z,2.28
2023-03-14T22:53:50.736Z,2.45
2023-03-14T22:56:20.562Z,2.42
2023-03-14T22:58:48.930Z,2.42
2023-03-14T23:01:17.544Z,2.92
2023-03-14T23:03:46.044Z,3.10
2023-03-14T23:06:14.402Z,3.35
2023-03-14T23:08:43.354Z,3.00
2023-03-14T23:11:13.837Z,2.47
2023-03-14T23:13:44.497Z,4.00
2023-03-14T23:16:13.726Z,3.70
2023-03-14T23:18:43.510Z,3.47
2023-03-14T23:21:13.759Z,3.15
2023-03-14T23:23:42.941Z,3.25
2023-03-14T23:26:14.719Z,3.38
2023-03-14T23:28:44.891Z,3.47
2023-03-14T23:31:14.412Z,3.22
2023-03-14T23:33:44.332Z,3.03
2023-03-14T23:36:18.204Z,3.55
2023-03-14T23:38:47.542Z,3.35
2023-03-14T23:41:16.325Z,1.90
2023-03-14T23:43:46.518Z,2.42
2023-03-14T23:46:15.554Z,2.25
2023-03-14T23:48:48.434Z,2.17
2023-03-14T23:51:17.864Z,1.70
2023-03-14T23:53:46.238Z,2.38
2023-03-14T23:56:17.059Z,2.63
2023-03-14T23:58:46.937Z,2.80
